sensor_id;sensor_type;location;lat;lon;timestamp;pressure;altitude;pressure_sealevel;temperature;humidity
71504;BME280;59323;50.874;7.028;2023-01-15T00:01:36;99755.56;;;7.41;89.64
71504;BME280;59323;50.874;7.028;2023-01-15T00:04:04;99767.50;;;7.40;87.85
71504;BME280;59323;50.874;7.028;2023-01-15T00:06:30;99773.28;;;7.38;89.03
71504;BME280;59323;50.874;7.028;2023-01-15T00:08:57;99767.00;;;7.30;88.94
71504;BME280;59323;50.874;7.028;2023-01-15T00:11:23;99776.56;;;7.24;88.76
71504;BME280;59323;50.874;7.028;2023-01-15T00:13:49;99775.78;;;7.24;89.65
71504;BME280;59323;50.874;7.028;2023-01-15T00:16:19;99778.41;;;7.17;89.69
71504;BME280;59323;50.874;7.028;2023-01-15T00:18:50;99786.78;;;7.12;89.99
71504;BME280;59323;50.874;7.028;2023-01-15T00:21:16;99791.34;;;7.08;90.13
71504;BME280;59323;50.874;7.028;2023-01-15T00:23:41;99795.63;;;7.09;90.11
71504;BME280;59323;50.874;7.028;2023-01-15T00:26:27;99794.72;;;7.01;91.18
71504;BME280;59323;50.874;7.028;2023-01-15T00:29:13;99796.53;;;6.93;90.05
71504;BME280;59323;50.874;7.028;2023-01-15T00:31:38;99811.97;;;6.93;90.82
71504;BME280;59323;50.874;7.028;2023-01-15T00:34:04;99811.19;;;6.92;90.41
71504;BME280;59323;50.874;7.028;2023-01-15T00:36:30;99817.31;;;6.89;91.17
71504;BME280;59323;50.874;7.028;2023-01-15T00:38:55;99825.78;;;6.88;90.89
71504;BME280;59323;50.874;7.028;2023-01-15T00:41:20;99827.63;;;6.84;90.97
71504;BME280;59323;50.874;7.028;2023-01-15T00:43:46;99832.69;;;6.85;91.37
71504;BME280;59323;50.874;7.028;2023-01-15T00:46:11;99820.69;;;6.83;89.95
71504;BME280;59323;50.874;7.028;2023-01-15T00:48:37;99817.97;;;6.83;90.75
71504;BME280;59323;50.874;7.028;2023-01-15T00:51:03;99827.16;;;6.78;89.76
71504;BME280;59323;50.874;7.028;2023-01-15T00:53:29;99806.03;;;6.84;88.53
71504;BME280;59323;50.874;7.028;2023-01-15T00:55:55;99820.94;;;6.74;89.05
71504;BME280;59323;50.874;7.028;2023-01-15T00:58:20;99827.06;;;6.71;90.08
71504;BME280;59323;50.874;7.028;2023-01-15T01:00:46;99828.91;;;6.67;90.40
71504;BME280;59323;50.874;7.028;2023-01-15T01:03:11;99824.59;;;6.62;90.92
71504;BME280;59323;50.874;7.028;2023-01-15T01:05:37;99824.94;;;6.61;91.81
71504;BME280;59323;50.874;7.028;2023-01-15T01:08:02;99817.56;;;6.58;91.06
71504;BME280;59323;50.874;7.028;2023-01-15T01:10:27;99809.78;;;6.53;90.12
71504;BME280;59323;50.874;7.028;2023-01-15T01:12:53;99816.66;;;6.50;91.10
71504;BME280;59323;50.874;7.028;2023-01-15T01:15:21;99805.94;;;6.54;89.51
71504;BME280;59323;50.874;7.028;2023-01-15T01:17:46;99801.94;;;6.48;88.58
71504;BME280;59323;50.874;7.028;2023-01-15T01:20:13;99802.38;;;6.50;88.49
71504;BME280;59323;50.874;7.028;2023-01-15T01:22:39;99801.53;;;6.46;89.56
71504;BME280;59323;50.874;7.028;2023-01-15T01:25:05;99804.22;;;6.46;88.46
71504;BME280;59323;50.874;7.028;2023-01-15T01:27:31;99807.28;;;6.44;90.35
71504;BME280;59323;50.874;7.028;2023-01-15T01:29:56;99804.94;;;6.43;90.36
71504;BME280;59323;50.874;7.028;2023-01-15T01:32:21;99820.00;;;6.44;90.95
71504;BME280;59323;50.874;7.028;2023-01-15T01:34:47;99818.44;;;6.43;89.73
71504;BME280;59323;50.874;7.028;2023-01-15T01:37:12;99813.81;;;6.43;88.86
71504;BME280;59323;50.874;7.028;2023-01-15T01:39:37;99820.00;;;6.44;88.12
71504;BME280;59323;50.874;7.028;2023-01-15T01:42:03;99811.91;;;6.44;86.74
71504;BME280;59323;50.874;7.028;2023-01-15T01:46:58;99814.25;;;6.45;87.52
71504;BME280;59323;50.874;7.028;2023-01-15T01:49:24;99816.16;;;6.45;87.69
71504;BME280;59323;50.874;7.028;2023-01-15T01:51:55;99810.28;;;6.39;88.17
71504;BME280;59323;50.874;7.028;2023-01-15T01:54:23;99800.19;;;6.36;88.04
71504;BME280;59323;50.874;7.028;2023-01-15T01:56:50;99804.47;;;6.37;87.54
71504;BME280;59323;50.874;7.028;2023-01-15T01:59:17;99789.84;;;6.38;86.90
71504;BME280;59323;50.874;7.028;2023-01-15T02:01:45;99779.81;;;6.39;86.84
71504;BME280;59323;50.874;7.028;2023-01-15T02:04:11;99774.84;;;6.41;85.17
71504;BME280;59323;50.874;7.028;2023-01-15T02:06:37;99783.34;;;6.43;84.68
71504;BME280;59323;50.874;7.028;2023-01-15T02:09:04;99797.22;;;6.41;84.95
71504;BME280;59323;50.874;7.028;2023-01-15T02:11:30;99794.44;;;6.38;85.32
71504;BME280;59323;50.874;7.028;2023-01-15T02:14:04;99796.00;;;6.39;85.89
71504;BME280;59323;50.874;7.028;2023-01-15T02:27:42;99786.66;;;6.32;83.32
71504;BME280;59323;50.874;7.028;2023-01-15T02:30:19;99786.22;;;6.30;83.89
71504;BME280;59323;50.874;7.028;2023-01-15T02:32:52;99785.50;;;6.33;84.34
71504;BME280;59323;50.874;7.028;2023-01-15T02:35:53;99784.31;;;6.31;85.04
71504;BME280;59323;50.874;7.028;2023-01-15T02:38:23;99785.44;;;6.30;84.96
71504;BME280;59323;50.874;7.028;2023-01-15T02:40:53;99785.81;;;6.28;85.27
71504;BME280;59323;50.874;7.028;2023-01-15T02:43:22;99791.19;;;6.28;85.36
71504;BME280;59323;50.874;7.028;2023-01-15T02:45:51;99793.41;;;6.23;85.63
71504;BME280;59323;50.874;7.028;2023-01-15T02:48:19;99793.84;;;6.25;84.86
71504;BME280;59323;50.874;7.028;2023-01-15T02:50:51;99788.03;;;6.23;84.82
71504;BME280;59323;50.874;7.028;2023-01-15T02:53:22;99797.19;;;6.18;85.23
71504;BME280;59323;50.874;7.028;2023-01-15T02:55:51;99800.59;;;6.15;85.09
71504;BME280;59323;50.874;7.028;2023-01-15T02:58:25;99788.97;;;6.11;84.94
71504;BME280;59323;50.874;7.028;2023-01-15T03:00:55;99784.47;;;6.19;84.88
71504;BME280;59323;50.874;7.028;2023-01-15T03:06:19;99784.84;;;6.17;84.92
71504;BME280;59323;50.874;7.028;2023-01-15T03:08:46;99787.13;;;6.15;83.90
71504;BME280;59323;50.874;7.028;2023-01-15T03:11:16;99775.97;;;6.17;84.87
71504;BME280;59323;50.874;7.028;2023-01-15T03:13:55;99779.44;;;6.17;84.61
71504;BME280;59323;50.874;7.028;2023-01-15T03:16:32;99776.31;;;6.15;84.44
71504;BME280;59323;50.874;7.028;2023-01-15T03:19:28;99779.03;;;6.15;84.71
71504;BME280;59323;50.874;7.028;2023-01-15T03:21:59;99772.84;;;6.15;85.01
71504;BME280;59323;50.874;7.028;2023-01-15T03:24:40;99781.00;;;6.18;84.68
71504;BME280;59323;50.874;7.028;2023-01-15T03:27:06;99775.13;;;6.13;84.77
71504;BME280;59323;50.874;7.028;2023-01-15T03:29:36;99785.13;;;6.12;85.83
71504;BME280;59323;50.874;7.028;2023-01-15T03:32:03;99791.72;;;6.15;85.55
71504;BME280;59323;50.874;7.028;2023-01-15T03:34:47;99796.41;;;6.18;84.82
71504;BME280;59323;50.874;7.028;2023-01-15T03:37:13;99793.00;;;6.21;84.77
71504;BME280;59323;50.874;7.028;2023-01-15T03:39:40;99779.09;;;6.19;84.59
71504;BME280;59323;50.874;7.028;2023-01-15T03:45:21;99751.88;;;6.27;82.91
71504;BME280;59323;50.874;7.028;2023-01-15T03:48:01;99759.53;;;6.25;82.28
71504;BME280;59323;50.874;7.028;2023-01-15T03:50:47;99740.66;;;6.25;82.45
71504;BME280;59323;50.874;7.028;2023-01-15T03:53:19;99742.22;;;6.26;81.96
71504;BME280;59323;50.874;7.028;2023-01-15T03:55:51;99746.06;;;6.25;82.27
71504;BME280;59323;50.874;7.028;2023-01-15T04:00:49;99741.03;;;6.24;82.80
71504;BME280;59323;50.874;7.028;2023-01-15T04:03:17;99736.75;;;6.23;83.16
71504;BME280;59323;50.874;7.028;2023-01-15T04:05:44;99734.00;;;6.19;82.08
71504;BME280;59323;50.874;7.028;2023-01-15T04:08:11;99755.28;;;6.24;81.17
71504;BME280;59323;50.874;7.028;2023-01-15T04:10:37;99758.75;;;6.25;81.18
71504;BME280;59323;50.874;7.028;2023-01-15T04:13:02;99756.13;;;6.28;80.52
71504;BME280;59323;50.874;7.028;2023-01-15T04:15:28;99745.69;;;6.27;79.98
71504;BME280;59323;50.874;7.028;2023-01-15T04:17:53;99728.97;;;6.18;80.21
71504;BME280;59323;50.874;7.028;2023-01-15T04:20:18;99745.63;;;6.23;80.20
71504;BME280;59323;50.874;7.028;2023-01-15T04:22:44;99734.44;;;6.21;81.05
71504;BME280;59323;50.874;7.028;2023-01-15T04:25:09;99744.31;;;6.14;81.63
71504;BME280;59323;50.874;7.028;2023-01-15T04:27:35;99747.78;;;6.14;81.33
71504;BME280;59323;50.874;7.028;2023-01-15T04:30:00;99730.88;;;6.17;81.38
71504;BME280;59323;50.874;7.028;2023-01-15T04:32:26;99728.91;;;6.14;82.04
71504;BME280;59323;50.874;7.028;2023-01-15T04:34:51;99733.16;;;6.15;81.30
71504;BME280;59323;50.874;7.028;2023-01-15T04:37:18;99749.34;;;6.15;82.03
71504;BME280;59323;50.874;7.028;2023-01-15T04:39:43;99746.66;;;6.15;81.81
71504;BME280;59323;50.874;7.028;2023-01-15T04:42:13;99760.13;;;6.15;82.73
71504;BME280;59323;50.874;7.028;2023-01-15T04:44:57;99766.66;;;6.14;83.51
71504;BME280;59323;50.874;7.028;2023-01-15T04:47:23;99765.81;;;6.10;82.75
71504;BME280;59323;50.874;7.028;2023-01-15T04:49:48;99756.91;;;6.06;83.38
71504;BME280;59323;50.874;7.028;2023-01-15T04:52:14;99750.28;;;6.03;83.72
71504;BME280;59323;50.874;7.028;2023-01-15T04:54:39;99755.75;;;6.07;83.85
71504;BME280;59323;50.874;7.028;2023-01-15T04:57:05;99756.91;;;6.06;83.62
71504;BME280;59323;50.874;7.028;2023-01-15T04:59:30;99763.41;;;6.05;82.60
71504;BME280;59323;50.874;7.028;2023-01-15T05:01:55;99769.53;;;6.02;83.50
71504;BME280;59323;50.874;7.028;2023-01-15T05:04:21;99771.16;;;6.07;83.34
71504;BME280;59323;50.874;7.028;2023-01-15T05:06:46;99752.63;;;6.05;83.00
71504;BME280;59323;50.874;7.028;2023-01-15T05:09:12;99757.97;;;6.01;83.30
71504;BME280;59323;50.874;7.028;2023-01-15T05:11:38;99757.53;;;5.99;83.85
71504;BME280;59323;50.874;7.028;2023-01-15T05:14:05;99750.16;;;5.96;83.34
71504;BME280;59323;50.874;7.028;2023-01-15T05:16:31;99763.34;;;6.01;82.53
71504;BME280;59323;50.874;7.028;2023-01-15T05:18:59;99759.53;;;6.02;82.44
71504;BME280;59323;50.874;7.028;2023-01-15T05:21:30;99754.91;;;6.03;82.33
71504;BME280;59323;50.874;7.028;2023-01-15T05:23:56;99758.03;;;6.05;81.38
71504;BME280;59323;50.874;7.028;2023-01-15T05:26:23;99761.94;;;6.08;80.48
71504;BME280;59323;50.874;7.028;2023-01-15T05:28:52;99760.84;;;6.12;79.91
71504;BME280;59323;50.874;7.028;2023-01-15T05:31:18;99761.28;;;6.14;79.84
71504;BME280;59323;50.874;7.028;2023-01-15T05:33:45;99765.59;;;6.19;78.73
71504;BME280;59323;50.874;7.028;2023-01-15T05:36:13;99757.88;;;6.17;77.98
71504;BME280;59323;50.874;7.028;2023-01-15T05:38:38;99762.53;;;6.20;78.44
71504;BME280;59323;50.874;7.028;2023-01-15T05:41:09;99764.09;;;6.21;78.12
71504;BME280;59323;50.874;7.028;2023-01-15T05:43:55;99761.88;;;6.27;75.72
71504;BME280;59323;50.874;7.028;2023-01-15T05:46:22;99758.34;;;6.23;76.22
71504;BME280;59323;50.874;7.028;2023-01-15T05:48:48;99766.50;;;6.26;75.72
71504;BME280;59323;50.874;7.028;2023-01-15T05:51:13;99766.50;;;6.26;76.18
71504;BME280;59323;50.874;7.028;2023-01-15T05:53:39;99764.59;;;6.27;76.00
71504;BME280;59323;50.874;7.028;2023-01-15T05:56:05;99767.22;;;6.23;76.71
71504;BME280;59323;50.874;7.028;2023-01-15T05:58:31;99778.44;;;6.25;76.06
71504;BME280;59323;50.874;7.028;2023-01-15T06:00:56;99782.25;;;6.24;76.60
71504;BME280;59323;50.874;7.028;2023-01-15T06:03:22;99778.31;;;6.18;76.79
71504;BME280;59323;50.874;7.028;2023-01-15T06:05:50;99786.75;;;6.17;77.60
71504;BME280;59323;50.874;7.028;2023-01-15T06:08:15;99784.78;;;6.14;78.49
71504;BME280;59323;50.874;7.028;2023-01-15T06:10:43;99790.59;;;6.16;78.86
71504;BME280;59323;50.874;7.028;2023-01-15T06:13:09;99785.19;;;6.16;79.48
71504;BME280;59323;50.874;7.028;2023-01-15T06:15:35;99780.16;;;6.14;79.91
71504;BME280;59323;50.874;7.028;2023-01-15T06:18:00;99787.41;;;6.10;80.36
71504;BME280;59323;50.874;7.028;2023-01-15T06:20:25;99778.47;;;6.06;81.55
71504;BME280;59323;50.874;7.028;2023-01-15T06:22:51;99785.78;;;6.06;81.52
71504;BME280;59323;50.874;7.028;2023-01-15T06:25:16;99781.09;;;6.02;81.32
71504;BME280;59323;50.874;7.028;2023-01-15T06:27:41;99781.38;;;5.97;82.68
71504;BME280;59323;50.874;7.028;2023-01-15T06:30:10;99796.28;;;5.91;82.90
71504;BME280;59323;50.874;7.028;2023-01-15T06:32:35;99804.38;;;5.91;82.44
71504;BME280;59323;50.874;7.028;2023-01-15T06:35:00;99803.16;;;5.89;82.91
71504;BME280;59323;50.874;7.028;2023-01-15T06:37:26;99790.03;;;5.87;82.45
71504;BME280;59323;50.874;7.028;2023-01-15T06:39:51;99801.59;;;5.88;82.25
71504;BME280;59323;50.874;7.028;2023-01-15T06:42:16;99811.69;;;5.91;82.62
71504;BME280;59323;50.874;7.028;2023-01-15T06:45:00;99813.16;;;5.88;82.35
71504;BME280;59323;50.874;7.028;2023-01-15T06:47:46;99811.59;;;5.87;82.73
71504;BME280;59323;50.874;7.028;2023-01-15T06:50:12;99821.13;;;5.85;82.48
71504;BME280;59323;50.874;7.028;2023-01-15T06:52:37;99823.06;;;5.84;83.17
71504;BME280;59323;50.874;7.028;2023-01-15T06:55:03;99819.88;;;5.79;83.18
71504;BME280;59323;50.874;7.028;2023-01-15T06:57:29;99824.41;;;5.74;83.61
71504;BME280;59323;50.874;7.028;2023-01-15T06:59:54;99815.53;;;5.74;83.10
71504;BME280;59323;50.874;7.028;2023-01-15T07:02:19;99827.38;;;5.69;84.56
71504;BME280;59323;50.874;7.028;2023-01-15T07:04:46;99826.09;;;5.63;84.29
71504;BME280;59323;50.874;7.028;2023-01-15T07:07:13;99832.81;;;5.54;84.65
71504;BME280;59323;50.874;7.028;2023-01-15T07:09:39;99839.00;;;5.54;84.39
71504;BME280;59323;50.874;7.028;2023-01-15T07:12:04;99831.03;;;5.42;84.06
71504;BME280;59323;50.874;7.028;2023-01-15T07:14:31;99838.06;;;5.47;84.22
71504;BME280;59323;50.874;7.028;2023-01-15T07:16:57;99827.97;;;5.44;84.56
71504;BME280;59323;50.874;7.028;2023-01-15T07:19:25;99836.78;;;5.40;84.73
71504;BME280;59323;50.874;7.028;2023-01-15T07:21:51;99837.91;;;5.39;85.24
71504;BME280;59323;50.874;7.028;2023-01-15T07:24:17;99839.47;;;5.40;85.09
71504;BME280;59323;50.874;7.028;2023-01-15T07:26:42;99844.34;;;5.35;84.99
71504;BME280;59323;50.874;7.028;2023-01-15T07:29:09;99845.03;;;5.32;85.64
71504;BME280;59323;50.874;7.028;2023-01-15T07:31:35;99850.34;;;5.28;85.51
71504;BME280;59323;50.874;7.028;2023-01-15T07:34:00;99856.09;;;5.27;85.76
71504;BME280;59323;50.874;7.028;2023-01-15T07:36:25;99859.91;;;5.26;85.90
71504;BME280;59323;50.874;7.028;2023-01-15T07:38:51;99863.38;;;5.26;85.76
71504;BME280;59323;50.874;7.028;2023-01-15T07:41:16;99864.25;;;5.30;85.41
71504;BME280;59323;50.874;7.028;2023-01-15T07:44:00;99865.47;;;5.33;85.25
71504;BME280;59323;50.874;7.028;2023-01-15T07:46:44;99863.97;;;5.35;85.41
71504;BME280;59323;50.874;7.028;2023-01-15T07:49:28;99867.88;;;5.38;85.13
71504;BME280;59323;50.874;7.028;2023-01-15T07:52:23;99879.09;;;5.40;85.42
71504;BME280;59323;50.874;7.028;2023-01-15T07:54:49;99872.84;;;5.36;84.71
71504;BME280;59323;50.874;7.028;2023-01-15T07:57:19;99869.72;;;5.34;84.89
71504;BME280;59323;50.874;7.028;2023-01-15T07:59:45;99886.03;;;5.41;84.94
71504;BME280;59323;50.874;7.028;2023-01-15T08:02:11;99884.03;;;5.38;84.52
71504;BME280;59323;50.874;7.028;2023-01-15T08:04:37;99897.69;;;5.45;84.42
71504;BME280;59323;50.874;7.028;2023-01-15T08:07:03;99901.16;;;5.46;84.66
71504;BME280;59323;50.874;7.028;2023-01-15T08:09:29;99902.72;;;5.47;84.70
71504;BME280;59323;50.874;7.028;2023-01-15T08:11:57;99921.94;;;5.45;84.42
71504;BME280;59323;50.874;7.028;2023-01-15T08:14:41;99942.63;;;5.41;85.33
71504;BME280;59323;50.874;7.028;2023-01-15T08:17:25;99961.75;;;5.36;86.39
71504;BME280;59323;50.874;7.028;2023-01-15T08:19:51;99974.84;;;5.37;87.67
71504;BME280;59323;50.874;7.028;2023-01-15T08:22:16;99970.00;;;5.27;87.92
71504;BME280;59323;50.874;7.028;2023-01-15T08:24:42;99975.28;;;5.24;89.76
71504;BME280;59323;50.874;7.028;2023-01-15T08:27:07;99971.44;;;5.09;90.57
71504;BME280;59323;50.874;7.028;2023-01-15T08:29:32;99980.09;;;5.02;90.60
71504;BME280;59323;50.874;7.028;2023-01-15T08:31:58;99980.69;;;4.96;90.97
71504;BME280;59323;50.874;7.028;2023-01-15T08:34:23;99970.19;;;4.91;90.50
71504;BME280;59323;50.874;7.028;2023-01-15T08:36:49;99956.19;;;4.85;91.42
71504;BME280;59323;50.874;7.028;2023-01-15T08:39:17;99970.00;;;4.84;91.64
71504;BME280;59323;50.874;7.028;2023-01-15T08:41:42;99970.59;;;4.77;93.12
71504;BME280;59323;50.874;7.028;2023-01-15T08:44:08;99957.81;;;4.74;92.84
71504;BME280;59323;50.874;7.028;2023-01-15T08:46:34;99968.94;;;4.72;93.60
71504;BME280;59323;50.874;7.028;2023-01-15T08:48:59;99972.41;;;4.73;93.39
71504;BME280;59323;50.874;7.028;2023-01-15T08:51:25;99965.81;;;4.70;93.69
71504;BME280;59323;50.874;7.028;2023-01-15T08:53:50;99955.47;;;4.72;93.94
71504;BME280;59323;50.874;7.028;2023-01-15T08:56:17;99957.38;;;4.72;94.69
71504;BME280;59323;50.874;7.028;2023-01-15T08:58:44;99962.78;;;4.72;94.52
71504;BME280;59323;50.874;7.028;2023-01-15T09:01:10;99957.38;;;4.72;94.03
71504;BME280;59323;50.874;7.028;2023-01-15T09:03:36;99959.41;;;4.75;94.60
71504;BME280;59323;50.874;7.028;2023-01-15T09:06:02;99963.66;;;4.76;94.66
71504;BME280;59323;50.874;7.028;2023-01-15T09:08:30;99960.97;;;4.76;94.66
71504;BME280;59323;50.874;7.028;2023-01-15T09:10:56;99974.84;;;4.78;94.50
71504;BME280;59323;50.874;7.028;2023-01-15T09:13:22;99957.81;;;4.74;94.75
71504;BME280;59323;50.874;7.028;2023-01-15T09:15:48;99957.56;;;4.79;95.00
71504;BME280;59323;50.874;7.028;2023-01-15T09:18:16;99957.66;;;4.83;95.01
71504;BME280;59323;50.874;7.028;2023-01-15T09:20:46;99955.06;;;4.86;95.20
71504;BME280;59323;50.874;7.028;2023-01-15T09:23:12;99953.25;;;4.90;94.43
71504;BME280;59323;50.874;7.028;2023-01-15T09:25:38;99951.09;;;4.96;94.70
71504;BME280;59323;50.874;7.028;2023-01-15T09:28:03;99947.38;;;5.00;94.68
71504;BME280;59323;50.874;7.028;2023-01-15T09:30:28;99947.00;;;5.02;94.72
71504;BME280;59323;50.874;7.028;2023-01-15T09:32:55;99943.28;;;5.06;93.60
71504;BME280;59323;50.874;7.028;2023-01-15T09:35:21;99946.84;;;5.10;93.31
71504;BME280;59323;50.874;7.028;2023-01-15T09:37:53;99942.69;;;5.13;92.23
71504;BME280;59323;50.874;7.028;2023-01-15T09:40:28;99935.47;;;5.17;91.24
71504;BME280;59323;50.874;7.028;2023-01-15T09:43:05;99947.66;;;5.27;89.69
71504;BME280;59323;50.874;7.028;2023-01-15T09:45:43;99945.75;;;5.27;88.91
71504;BME280;59323;50.874;7.028;2023-01-15T09:48:19;99948.44;;;5.27;89.47
71504;BME280;59323;50.874;7.028;2023-01-15T09:51:05;99938.88;;;5.30;88.72
71504;BME280;59323;50.874;7.028;2023-01-15T09:56:03;99944.34;;;5.49;87.52
71504;BME280;59323;50.874;7.028;2023-01-15T09:58:34;99952.91;;;5.70;86.55
71504;BME280;59323;50.874;7.028;2023-01-15T10:01:01;99957.28;;;5.91;87.63
71504;BME280;59323;50.874;7.028;2023-01-15T10:03:31;99957.94;;;6.03;84.63
71504;BME280;59323;50.874;7.028;2023-01-15T10:08:49;99954.13;;;6.24;82.81
71504;BME280;59323;50.874;7.028;2023-01-15T10:13:48;99952.44;;;6.35;81.16
71504;BME280;59323;50.874;7.028;2023-01-15T10:16:21;99940.81;;;6.50;79.72
71504;BME280;59323;50.874;7.028;2023-01-15T10:18:47;99958.34;;;6.60;79.96
71504;BME280;59323;50.874;7.028;2023-01-15T10:21:27;99958.19;;;6.72;80.00
71504;BME280;59323;50.874;7.028;2023-01-15T10:24:14;99966.84;;;6.81;77.89
71504;BME280;59323;50.874;7.028;2023-01-15T10:26:52;99963.63;;;6.95;76.71
71504;BME280;59323;50.874;7.028;2023-01-15T10:32:44;99960.25;;;7.21;76.88
71504;BME280;59323;50.874;7.028;2023-01-15T10:37:58;99983.66;;;7.36;74.46
71504;BME280;59323;50.874;7.028;2023-01-15T10:40:41;99982.59;;;7.41;74.02
71504;BME280;59323;50.874;7.028;2023-01-15T10:43:24;99977.66;;;7.46;73.44
71504;BME280;59323;50.874;7.028;2023-01-15T10:45:54;99980.06;;;7.51;73.31
71504;BME280;59323;50.874;7.028;2023-01-15T10:48:54;99979.69;;;7.53;71.97
71504;BME280;59323;50.874;7.028;2023-01-15T10:51:27;99969.25;;;7.51;72.87
71504;BME280;59323;50.874;7.028;2023-01-15T10:53:59;99993.56;;;7.51;70.78
71504;BME280;59323;50.874;7.028;2023-01-15T10:56:36;99990.44;;;7.49;70.52
71504;BME280;59323;50.874;7.028;2023-01-15T10:59:18;99983.06;;;7.46;71.19
71504;BME280;59323;50.874;7.028;2023-01-15T11:01:51;99978.06;;;7.48;71.38
71504;BME280;59323;50.874;7.028;2023-01-15T11:04:17;99976.50;;;7.47;70.65
71504;BME280;59323;50.874;7.028;2023-01-15T11:06:43;99990.88;;;7.51;70.51
71504;BME280;59323;50.874;7.028;2023-01-15T11:09:20;99989.72;;;7.52;71.19
71504;BME280;59323;50.874;7.028;2023-01-15T11:11:49;99990.50;;;7.53;71.59
71504;BME280;59323;50.874;7.028;2023-01-15T11:14:37;99988.53;;;7.50;69.72
71504;BME280;59323;50.874;7.028;2023-01-15T11:17:34;99986.59;;;7.50;69.48
71504;BME280;59323;50.874;7.028;2023-01-15T11:20:44;99983.00;;;7.43;69.30
71504;BME280;59323;50.874;7.028;2023-01-15T11:23:12;99983.72;;;7.40;69.65
71504;BME280;59323;50.874;7.028;2023-01-15T11:25:56;99989.56;;;7.42;71.02
71504;BME280;59323;50.874;7.028;2023-01-15T11:28:31;100002.81;;;7.50;70.70
71504;BME280;59323;50.874;7.028;2023-01-15T11:30:59;99998.63;;;7.53;69.17
71504;BME280;59323;50.874;7.028;2023-01-15T11:33:34;100005.28;;;7.59;69.42
71504;BME280;59323;50.874;7.028;2023-01-15T11:36:18;99997.47;;;7.54;68.79
71504;BME280;59323;50.874;7.028;2023-01-15T11:38:46;99985.81;;;7.50;69.63
71504;BME280;59323;50.874;7.028;2023-01-15T11:41:32;99983.22;;;7.57;70.24
71504;BME280;59323;50.874;7.028;2023-01-15T11:44:18;99985.25;;;7.63;70.39
71504;BME280;59323;50.874;7.028;2023-01-15T11:47:02;99975.69;;;7.70;69.85
71504;BME280;59323;50.874;7.028;2023-01-15T11:49:54;99989.16;;;7.66;67.55
71504;BME280;59323;50.874;7.028;2023-01-15T11:52:42;99985.16;;;7.56;68.50
71504;BME280;59323;50.874;7.028;2023-01-15T11:55:16;99986.25;;;7.52;67.98
71504;BME280;59323;50.874;7.028;2023-01-15T11:57:43;99980.34;;;7.46;68.17
71504;BME280;59323;50.874;7.028;2023-01-15T12:00:22;99976.47;;;7.44;67.58
71504;BME280;59323;50.874;7.028;2023-01-15T12:02:50;99986.47;;;7.43;68.12
71504;BME280;59323;50.874;7.028;2023-01-15T12:05:19;99978.75;;;7.42;69.20
71504;BME280;59323;50.874;7.028;2023-01-15T12:07:47;99973.28;;;7.38;68.55
71504;BME280;59323;50.874;7.028;2023-01-15T12:10:18;99975.56;;;7.36;68.33
71504;BME280;59323;50.874;7.028;2023-01-15T12:13:26;99954.66;;;7.33;69.12
71504;BME280;59323;50.874;7.028;2023-01-15T12:19:02;99945.66;;;7.25;69.22
71504;BME280;59323;50.874;7.028;2023-01-15T12:24:45;99931.25;;;7.18;69.23
71504;BME280;59323;50.874;7.028;2023-01-15T12:30:43;99925.63;;;7.07;69.16
71504;BME280;59323;50.874;7.028;2023-01-15T12:35:48;99921.94;;;7.15;69.15
71504;BME280;59323;50.874;7.028;2023-01-15T12:38:39;99954.00;;;7.17;68.74
71504;BME280;59323;50.874;7.028;2023-01-15T12:41:12;99925.44;;;7.16;68.25
71504;BME280;59323;50.874;7.028;2023-01-15T12:43:42;99940.56;;;7.20;69.12
71504;BME280;59323;50.874;7.028;2023-01-15T12:46:29;99941.75;;;7.23;69.95
71504;BME280;59323;50.874;7.028;2023-01-15T12:49:03;99938.75;;;7.28;70.33
71504;BME280;59323;50.874;7.028;2023-01-15T12:51:40;99926.03;;;7.28;68.82
71504;BME280;59323;50.874;7.028;2023-01-15T12:54:13;99926.06;;;7.32;68.34
71504;BME280;59323;50.874;7.028;2023-01-15T12:57:03;99935.44;;;7.38;69.33
71504;BME280;59323;50.874;7.028;2023-01-15T12:59:35;99938.19;;;7.42;69.02
71504;BME280;59323;50.874;7.028;2023-01-15T13:02:36;99929.84;;;7.50;68.76
71504;BME280;59323;50.874;7.028;2023-01-15T13:05:18;99934.56;;;7.57;68.74
71504;BME280;59323;50.874;7.028;2023-01-15T13:10:27;99952.56;;;7.72;67.60
71504;BME280;59323;50.874;7.028;2023-01-15T13:12:59;99943.31;;;7.73;67.94
71504;BME280;59323;50.874;7.028;2023-01-15T13:15:30;99938.34;;;7.79;67.69
71504;BME280;59323;50.874;7.028;2023-01-15T13:23:49;99958.44;;;7.78;67.42
71504;BME280;59323;50.874;7.028;2023-01-15T13:26:10;99970.03;;;7.78;67.12
71504;BME280;59323;50.874;7.028;2023-01-15T13:28:52;99970.81;;;7.79;66.70
71504;BME280;59323;50.874;7.028;2023-01-15T13:39:41;99960.56;;;7.65;65.65
71504;BME280;59323;50.874;7.028;2023-01-15T13:42:24;99957.09;;;7.64;65.70
71504;BME280;59323;50.874;7.028;2023-01-15T13:45:20;99960.63;;;7.69;65.77
71504;BME280;59323;50.874;7.028;2023-01-15T13:47:46;99964.88;;;7.70;66.45
71504;BME280;59323;50.874;7.028;2023-01-15T13:50:20;99957.19;;;7.72;65.18
71504;BME280;59323;50.874;7.028;2023-01-15T13:52:47;99958.34;;;7.71;65.85
71504;BME280;59323;50.874;7.028;2023-01-15T13:55:25;99958.75;;;7.73;65.07
71504;BME280;59323;50.874;7.028;2023-01-15T13:57:53;99977.25;;;7.71;65.29
71504;BME280;59323;50.874;7.028;2023-01-15T14:02:57;99991.63;;;7.75;64.82
71504;BME280;59323;50.874;7.028;2023-01-15T14:05:24;99996.97;;;7.71;64.98
71504;BME280;59323;50.874;7.028;2023-01-15T14:07:54;100000.41;;;7.68;65.63
71504;BME280;59323;50.874;7.028;2023-01-15T14:10:24;99989.53;;;7.64;65.09
71504;BME280;59323;50.874;7.028;2023-01-15T14:26:05;100002.81;;;7.50;66.59
71504;BME280;59323;50.874;7.028;2023-01-15T14:28:47;100003.53;;;7.47;66.97
71504;BME280;59323;50.874;7.028;2023-01-15T14:31:45;100012.00;;;7.46;67.42
71504;BME280;59323;50.874;7.028;2023-01-15T14:34:26;100016.16;;;7.40;67.58
71504;BME280;59323;50.874;7.028;2023-01-15T14:37:30;100008.06;;;7.40;66.22
71504;BME280;59323;50.874;7.028;2023-01-15T14:40:02;100027.28;;;7.35;67.52
71504;BME280;59323;50.874;7.028;2023-01-15T14:42:37;100013.41;;;7.36;66.92
71504;BME280;59323;50.874;7.028;2023-01-15T14:45:37;100029.59;;;7.36;66.74
71504;BME280;59323;50.874;7.028;2023-01-15T14:48:34;100035.31;;;7.31;66.67
71504;BME280;59323;50.874;7.028;2023-01-15T14:51:15;100036.09;;;7.31;66.81